Time;durP1;ratioP1;P1;durP2;ratioP2;P2;SDS_P1;SDS_P2;PMS_P1;PMS_P2;Temp;Humidity;BMP_temperature;BMP_pressure;BME280_temperature;BME280_humidity;BME280_pressure;Samples;Min_cycle;Max_cycle;Signal;HPM_P1;HPM_P2
2023/07/22 00:00:22;;;;;;;26.38;12.10;;;;;;;15.57;79.43;101238.78;5013399;28;20108;-77
2023/07/22 00:02:47;;;;;;;26.60;11.82;;;;;;;15.55;79.23;101236.19;5004014;28;21361;-79
2023/07/22 00:05:13;;;;;;;23.67;12.52;;;;;;;15.56;79.31;101239.75;5006331;28;20022;-76
2023/07/22 00:07:40;;;;;;;22.92;10.35;;;;;;;15.56;79.44;101239.75;5016190;28;20018;-79
2023/07/22 00:10:06;;;;;;;24.05;11.43;;;;;;;15.52;79.88;101238.31;5027079;28;20026;-79
2023/07/22 00:12:31;;;;;;;23.70;12.50;;;;;;;15.50;80.56;101234.88;5023687;28;20420;-79
2023/07/22 00:14:57;;;;;;;24.90;11.57;;;;;;;15.49;80.53;101238.56;5023151;28;20084;-78
2023/07/22 00:17:24;;;;;;;26.80;12.45;;;;;;;15.45;80.50;101234.44;5018821;28;20030;-78
2023/07/22 00:19:49;;;;;;;25.42;12.18;;;;;;;15.42;80.74;101232.88;5015438;28;20029;-78
2023/07/22 00:22:17;;;;;;;23.65;11.93;;;;;;;15.46;81.01;101230.72;5022027;28;20029;-77
2023/07/22 00:24:42;;;;;;;23.42;11.30;;;;;;;15.45;80.39;101231.75;5023934;28;20477;-79
2023/07/22 00:27:08;;;;;;;28.67;12.35;;;;;;;15.46;80.82;101230.72;5013534;28;20022;-79
2023/07/22 00:29:34;;;;;;;24.50;11.25;;;;;;;15.40;80.83;101225.84;5023984;28;20113;-78
2023/07/22 00:31:59;;;;;;;22.88;10.80;;;;;;;15.42;80.82;101226.56;5030382;28;20026;-78
2023/07/22 00:34:25;;;;;;;25.42;11.60;;;;;;;15.42;80.56;101230.16;5013736;28;20092;-78
2023/07/22 00:36:50;;;;;;;24.60;10.32;;;;;;;15.42;81.12;101231.97;5019602;28;20065;-77
2023/07/22 00:39:15;;;;;;;22.73;10.18;;;;;;;15.40;81.28;101239.41;5013989;28;20021;-77
2023/07/22 00:41:44;;;;;;;23.58;10.38;;;;;;;15.38;81.58;101234.13;5015680;28;20151;-79
2023/07/22 00:44:09;;;;;;;25.67;11.43;;;;;;;15.37;81.26;101227.84;5017136;28;20038;-78
2023/07/22 00:46:35;;;;;;;24.73;12.32;;;;;;;15.31;81.59;101228.38;5025203;28;20477;-80
2023/07/22 00:49:01;;;;;;;23.65;10.32;;;;;;;15.33;81.99;101226.41;5019740;28;20084;-79
2023/07/22 00:51:26;;;;;;;26.02;10.85;;;;;;;15.31;82.57;101217.53;5028314;28;20085;-78
2023/07/22 00:53:51;;;;;;;22.75;11.07;;;;;;;15.30;82.06;101221.25;5017238;28;20036;-80
2023/07/22 00:56:17;;;;;;;24.95;11.68;;;;;;;15.29;82.46;101222.25;5021615;28;20482;-78
2023/07/22 00:58:42;;;;;;;24.50;11.38;;;;;;;15.28;82.87;101217.81;5026497;28;20029;-78
2023/07/22 01:01:07;;;;;;;24.20;11.35;;;;;;;15.27;82.92;101217.94;5016973;28;20037;-78
2023/07/22 01:10:48;;;;;;;24.10;11.60;;;;;;;15.31;82.85;101217.53;5034495;28;20055;-75
2023/07/22 01:13:13;;;;;;;25.52;12.13;;;;;;;15.25;83.51;101215.38;5047063;28;20037;-75
2023/07/22 01:15:39;;;;;;;24.38;11.38;;;;;;;15.26;83.43;101211.69;5048543;28;20037;-75
2023/07/22 01:18:05;;;;;;;25.80;12.20;;;;;;;15.25;83.92;101209.97;5049074;28;20049;-76
2023/07/22 01:20:30;;;;;;;24.30;11.40;;;;;;;15.24;84.41;101208.22;5049170;28;20025;-73
2023/07/22 01:22:56;;;;;;;24.85;11.13;;;;;;;15.22;84.88;101206.66;5049027;28;20029;-74
2023/07/22 01:25:22;;;;;;;24.25;10.98;;;;;;;15.18;84.26;101200.66;5048468;28;20029;-74
2023/07/22 01:27:49;;;;;;;23.23;10.57;;;;;;;15.15;84.67;101201.81;5049485;28;20032;-74
2023/07/22 01:30:15;;;;;;;24.17;11.45;;;;;;;15.15;85.09;101212.63;5049213;28;20099;-73
2023/07/22 01:32:40;;;;;;;23.85;12.02;;;;;;;15.17;84.60;101196.25;5039976;28;20029;-74
2023/07/22 01:35:07;;;;;;;25.95;12.73;;;;;;;15.15;84.28;101200.91;5049244;28;20114;-75
2023/07/22 01:37:33;;;;;;;24.17;11.75;;;;;;;15.12;83.93;101203.91;5047778;28;20028;-74
2023/07/22 01:39:58;;;;;;;24.50;12.13;;;;;;;15.11;84.41;101196.75;5044343;28;20081;-76
2023/07/22 01:42:24;;;;;;;24.63;11.68;;;;;;;15.12;83.98;101195.78;5049274;28;20068;-73
2023/07/22 01:44:50;;;;;;;24.15;11.77;;;;;;;15.12;83.61;101193.06;5046756;28;20530;-74
2023/07/22 01:47:16;;;;;;;24.27;11.68;;;;;;;15.10;83.66;101197.78;5049082;28;20021;-75
2023/07/22 01:49:41;;;;;;;26.02;12.15;;;;;;;15.11;83.86;101194.06;5049103;28;20064;-74
2023/07/22 01:52:07;;;;;;;25.55;11.43;;;;;;;15.07;84.01;101193.47;5049374;28;20095;-73
2023/07/22 01:54:32;;;;;;;27.10;12.15;;;;;;;15.05;83.98;101187.31;5048029;28;20035;-74
2023/07/22 01:56:58;;;;;;;24.60;11.88;;;;;;;15.03;84.30;101179.34;5048928;28;20087;-75
2023/07/22 01:59:23;;;;;;;25.13;12.15;;;;;;;15.04;84.15;101188.34;5043500;28;20535;-74
2023/07/22 02:01:48;;;;;;;28.58;13.15;;;;;;;15.07;84.45;101181.81;5049574;28;20043;-76
2023/07/22 02:04:14;;;;;;;25.73;12.10;;;;;;;15.06;84.26;101183.63;5045780;28;20056;-73
2023/07/22 02:06:39;;;;;;;28.38;13.45;;;;;;;15.07;84.39;101189.91;5037069;28;20045;-73
2023/07/22 02:09:08;;;;;;;25.63;12.32;;;;;;;15.06;84.20;101194.47;5035685;28;20033;-74
2023/07/22 02:11:36;;;;;;;24.20;12.37;;;;;;;15.06;84.69;101182.78;5040047;28;20049;-73
2023/07/22 02:14:01;;;;;;;27.05;12.95;;;;;;;15.02;84.86;101182.19;5057176;28;20287;-74
2023/07/22 02:16:27;;;;;;;24.85;12.30;;;;;;;15.06;85.50;101177.38;5052309;28;20021;-76
2023/07/22 02:18:52;;;;;;;26.75;11.45;;;;;;;15.02;85.30;101176.75;5059097;28;20429;-73
2023/07/22 02:21:17;;;;;;;26.92;12.32;;;;;;;15.02;85.36;101174.94;5056862;28;20034;-73
2023/07/22 02:23:43;;;;;;;25.30;12.50;;;;;;;15.02;85.53;101176.75;5060941;28;20064;-74
2023/07/22 02:26:08;;;;;;;24.55;11.68;;;;;;;15.03;85.84;101176.63;5061036;28;20087;-74
2023/07/22 02:28:33;;;;;;;25.15;12.95;;;;;;;15.05;86.25;101167.53;5059992;28;20041;-74
2023/07/22 02:31:06;;;;;;;25.17;12.85;;;;;;;14.98;85.43;101173.47;5058331;28;20077;-75
2023/07/22 02:33:33;;;;;;;25.30;12.70;;;;;;;14.99;85.38;101177.91;5052168;28;20045;-73
2023/07/22 02:35:58;;;;;;;25.33;12.00;;;;;;;14.98;85.48;101178.03;5043985;28;20032;-73
2023/07/22 02:38:24;;;;;;;24.70;11.10;;;;;;;14.95;86.54;101172.88;5054910;28;20070;-75
2023/07/22 02:40:49;;;;;;;24.33;12.57;;;;;;;14.93;86.18;101167.59;5060197;28;20052;-75
2023/07/22 02:43:15;;;;;;;25.48;11.68;;;;;;;14.91;86.16;101172.28;5062476;28;20032;-74
2023/07/22 02:45:40;;;;;;;26.55;12.07;;;;;;;14.87;86.81;101170.00;5056222;28;20089;-73
2023/07/22 02:48:06;;;;;;;24.45;11.82;;;;;;;14.86;86.50;101171.81;5053101;28;20040;-74
2023/07/22 02:50:32;;;;;;;24.95;11.50;;;;;;;14.85;87.27;101172.84;5059194;28;20484;-73
2023/07/22 02:52:57;;;;;;;23.90;11.40;;;;;;;14.81;87.51;101174.06;5058895;28;20056;-75
2023/07/22 02:55:23;;;;;;;25.88;11.45;;;;;;;14.75;87.18;101166.50;5060000;28;20048;-73
2023/07/22 02:57:48;;;;;;;28.25;12.70;;;;;;;14.72;87.52;101172.19;5057826;28;20013;-73
2023/07/22 03:00:25;;;;;;;24.92;10.95;;;;;;;14.65;87.25;101167.25;5053383;28;20022;-74
2023/07/22 03:02:52;;;;;;;24.92;12.00;;;;;;;14.58;87.65;101176.00;5069669;28;20108;-74
2023/07/22 03:05:19;;;;;;;23.40;11.18;;;;;;;14.57;88.01;101172.47;5057067;28;20143;-73
2023/07/22 03:07:44;;;;;;;28.40;12.65;;;;;;;14.56;88.05;101173.44;5064362;28;20088;-74
2023/07/22 03:10:10;;;;;;;24.58;10.85;;;;;;;14.53;88.89;101168.28;5057450;28;20064;-74
2023/07/22 03:12:36;;;;;;;24.40;12.38;;;;;;;14.45;88.82;101176.19;5049631;28;20056;-74
2023/07/22 03:15:03;;;;;;;25.25;11.75;;;;;;;14.42;89.41;101176.44;5073396;28;20044;-74
2023/07/22 03:17:29;;;;;;;23.77;11.10;;;;;;;14.41;89.41;101177.47;5059382;28;20036;-74
2023/07/22 03:19:55;;;;;;;29.20;11.38;;;;;;;14.36;89.64;101177.81;5055831;28;20021;-75
2023/07/22 03:22:20;;;;;;;23.33;11.07;;;;;;;14.32;89.77;101177.25;5062149;28;20063;-74
2023/07/22 03:24:45;;;;;;;25.30;11.77;;;;;;;14.31;89.52;101180.91;5056858;28;20101;-75
2023/07/22 03:27:12;;;;;;;26.95;11.13;;;;;;;14.27;89.71;101182.16;5048229;28;20037;-73
2023/07/22 03:29:38;;;;;;;26.13;11.93;;;;;;;14.26;90.24;101187.69;5062125;28;20047;-73
2023/07/22 03:32:04;;;;;;;25.83;11.32;;;;;;;14.23;90.37;101187.97;5057876;28;20460;-75
2023/07/22 03:34:30;;;;;;;24.15;11.90;;;;;;;14.19;90.84;101184.66;5058463;28;20135;-75
2023/07/22 03:36:56;;;;;;;26.38;11.85;;;;;;;14.12;90.51;101188.88;5054944;28;20032;-76
2023/07/22 03:39:21;;;;;;;22.50;10.73;;;;;;;14.10;90.93;101193.50;5056841;28;20120;-74
2023/07/22 03:41:46;;;;;;;23.80;10.65;;;;;;;14.11;90.85;101200.66;5059560;28;20090;-76
2023/07/22 03:44:12;;;;;;;28.55;11.25;;;;;;;14.08;91.65;101190.94;5061555;28;20037;-74
2023/07/22 03:46:38;;;;;;;25.17;11.88;;;;;;;14.07;91.71;101193.78;5060403;28;20012;-74
2023/07/22 03:49:03;;;;;;;26.90;12.77;;;;;;;14.05;91.81;101190.34;5048553;28;20031;-73
2023/07/22 03:51:28;;;;;;;23.88;11.02;;;;;;;14.06;91.88;101194.78;5059121;28;20092;-75
2023/07/22 03:53:54;;;;;;;26.60;12.00;;;;;;;14.03;91.84;101189.63;5064023;28;20036;-74
2023/07/22 03:56:20;;;;;;;29.63;11.80;;;;;;;14.01;92.10;101194.28;5053339;28;20038;-73
2023/07/22 03:58:46;;;;;;;25.55;11.48;;;;;;;14.02;92.15;101190.59;5049806;28;20041;-73
2023/07/22 04:01:12;;;;;;;28.02;12.68;;;;;;;14.01;92.82;101188.88;5057777;28;20044;-73
2023/07/22 04:03:37;;;;;;;25.63;11.38;;;;;;;13.94;92.52;101193.94;5056163;28;20026;-74
2023/07/22 04:06:02;;;;;;;25.52;12.35;;;;;;;13.96;92.10;101191.97;5059260;28;20043;-73
2023/07/22 04:08:28;;;;;;;26.10;11.40;;;;;;;13.92;92.73;101182.38;5052572;28;20095;-73
2023/07/22 04:10:54;;;;;;;24.17;11.60;;;;;;;13.86;92.48;101191.84;5058979;28;20034;-74
2023/07/22 04:13:20;;;;;;;23.35;11.82;;;;;;;13.89;93.06;101188.91;5060018;28;20021;-74
2023/07/22 04:15:47;;;;;;;27.08;11.95;;;;;;;13.85;93.02;101190.16;5055897;28;20036;-74
2023/07/22 04:18:12;;;;;;;23.35;10.73;;;;;;;13.81;93.48;101183.28;5047804;28;20056;-73
2023/07/22 04:20:37;;;;;;;25.58;11.00;;;;;;;13.83;92.99;101197.50;5056142;28;20033;-73
2023/07/22 04:23:02;;;;;;;24.40;12.25;;;;;;;13.81;92.76;101186.84;5054262;28;20043;-73
2023/07/22 04:25:28;;;;;;;23.70;10.48;;;;;;;13.84;94.05;101191.13;5059466;28;20037;-76
2023/07/22 04:27:53;;;;;;;25.15;10.85;;;;;;;13.75;93.21;101190.03;5055177;28;20027;-74
2023/07/22 04:30:20;;;;;;;24.77;11.38;;;;;;;13.81;93.52;101186.84;5053598;28;20024;-74
2023/07/22 04:32:49;;;;;;;24.08;11.18;;;;;;;13.77;93.28;101192.63;5059299;28;20036;-73
2023/07/22 04:35:17;;;;;;;26.70;12.07;;;;;;;13.78;93.38;101199.75;5059724;28;20029;-73
2023/07/22 04:37:43;;;;;;;24.00;11.00;;;;;;;13.81;93.45;101197.63;5054979;28;20063;-73
2023/07/22 04:40:13;;;;;;;26.38;12.90;;;;;;;13.82;93.21;101195.78;5054219;28;20357;-73
2023/07/22 04:42:39;;;;;;;28.60;11.80;;;;;;;13.82;94.02;101198.47;5054861;28;20018;-75
2023/07/22 04:45:06;;;;;;;23.60;10.93;;;;;;;13.79;93.81;101196.03;5058895;28;20043;-73
2023/07/22 04:47:31;;;;;;;22.73;10.43;;;;;;;13.87;93.87;101193.59;5052851;28;20033;-73
2023/07/22 04:49:56;;;;;;;25.17;11.43;;;;;;;13.87;93.20;101196.28;5048310;28;20025;-74
2023/07/22 04:52:22;;;;;;;25.17;11.07;;;;;;;13.90;94.40;101196.03;5059241;28;20024;-74
2023/07/22 04:54:47;;;;;;;26.45;11.90;;;;;;;13.99;94.21;101202.53;5078185;28;20043;-74
2023/07/22 04:57:12;;;;;;;24.45;11.57;;;;;;;14.04;94.07;101200.31;5061310;28;20096;-75
2023/07/22 04:59:38;;;;;;;24.80;11.48;;;;;;;14.05;93.19;101203.88;5053327;28;20059;-74
2023/07/22 05:02:04;;;;;;;26.23;11.70;;;;;;;14.11;93.74;101206.06;5061639;28;20036;-75
2023/07/22 05:04:29;;;;;;;23.75;10.93;;;;;;;14.16;93.80;101209.25;5053730;28;20021;-73
2023/07/22 05:06:54;;;;;;;25.13;10.82;;;;;;;14.18;93.41;101206.41;5058826;28;20025;-74
2023/07/22 05:09:20;;;;;;;26.65;11.45;;;;;;;14.18;93.84;101198.31;5057494;28;20021;-75
2023/07/22 05:11:45;;;;;;;24.23;11.38;;;;;;;14.26;93.61;101207.50;5060476;28;20041;-73
2023/07/22 05:14:11;;;;;;;25.90;10.95;;;;;;;14.28;93.04;101210.91;5057231;28;20040;-73
2023/07/22 05:16:36;;;;;;;22.40;10.05;;;;;;;14.34;93.29;101213.09;5046629;28;20041;-73
2023/07/22 05:19:01;;;;;;;29.20;12.57;;;;;;;14.37;93.46;101212.00;5057778;28;20041;-74
2023/07/22 05:21:27;;;;;;;25.00;11.48;;;;;;;14.38;92.78;101212.84;5057588;28;20072;-75
2023/07/22 05:23:52;;;;;;;24.40;10.75;;;;;;;14.40;92.97;101206.31;5059816;28;20112;-74
2023/07/22 05:26:17;;;;;;;23.30;10.85;;;;;;;14.44;93.32;101215.91;5053877;28;20044;-73
2023/07/22 05:28:43;;;;;;;23.75;11.40;;;;;;;14.46;92.47;101213.91;5058203;28;20132;-73
2023/07/22 05:31:08;;;;;;;25.00;10.82;;;;;;;14.45;92.94;101208.63;5050103;28;20323;-74
2023/07/22 05:33:33;;;;;;;24.83;11.13;;;;;;;14.51;92.36;101200.03;5066030;28;20088;-75
2023/07/22 05:35:59;;;;;;;29.23;11.43;;;;;;;14.57;92.21;101204.03;5055475;28;20499;-74
2023/07/22 05:38:24;;;;;;;24.38;11.77;;;;;;;14.61;92.65;101202.81;5050755;28;20021;-73
2023/07/22 05:40:52;;;;;;;26.63;10.68;;;;;;;14.66;92.43;101212.28;5055093;28;20110;-74
2023/07/22 05:43:17;;;;;;;25.35;11.30;;;;;;;14.68;92.51;101204.03;5060150;28;20021;-73
2023/07/22 05:45:43;;;;;;;24.38;11.90;;;;;;;14.72;92.32;101207.34;5062044;28;20127;-73
2023/07/22 05:48:08;;;;;;;24.67;12.38;;;;;;;14.76;92.37;101206.06;5049115;28;20033;-74
2023/07/22 05:50:34;;;;;;;26.60;11.55;;;;;;;14.78;92.39;101214.94;5059484;28;20120;-73
2023/07/22 05:52:59;;;;;;;23.85;10.80;;;;;;;14.81;92.54;101206.56;5059453;28;20395;-75
2023/07/22 05:55:24;;;;;;;26.67;11.80;;;;;;;14.85;92.44;101195.31;5050721;28;20108;-74
2023/07/22 05:57:50;;;;;;;26.15;11.55;;;;;;;14.90;92.47;101194.94;5055763;28;20048;-73
2023/07/22 06:00:15;;;;;;;25.83;11.35;;;;;;;14.94;92.01;101199.09;5055346;28;20013;-74
2023/07/22 06:02:41;;;;;;;24.58;10.48;;;;;;;15.00;92.23;101201.25;5061203;28;20037;-75
2023/07/22 06:05:07;;;;;;;25.42;12.35;;;;;;;15.01;91.88;101200.28;5053750;28;20025;-74
2023/07/22 06:07:33;;;;;;;25.55;11.00;;;;;;;15.09;92.12;101194.19;5047712;28;20050;-74
2023/07/22 06:09:58;;;;;;;27.75;12.55;;;;;;;15.13;91.75;101194.78;5047851;28;20037;-72
2023/07/22 06:12:23;;;;;;;24.95;12.02;;;;;;;15.22;92.82;101202.09;5049469;28;20034;-72
2023/07/22 06:14:49;;;;;;;29.00;10.60;;;;;;;15.31;93.17;101201.28;5059522;28;20106;-73
2023/07/22 06:17:15;;;;;;;25.90;12.20;;;;;;;15.39;92.09;101197.94;5059510;28;20041;-71
2023/07/22 06:19:40;;;;;;;26.65;11.93;;;;;;;15.43;91.66;101190.38;5060448;28;20055;-72
2023/07/22 06:22:05;;;;;;;25.75;11.95;;;;;;;15.50;92.19;101194.25;5058117;28;20613;-71
2023/07/22 06:24:31;;;;;;;27.38;11.48;;;;;;;15.54;92.29;101191.13;5057802;28;20025;-71
2023/07/22 06:26:56;;;;;;;28.10;12.02;;;;;;;15.55;92.68;101192.84;5054418;28;20025;-72
2023/07/22 06:29:21;;;;;;;26.13;12.73;;;;;;;15.61;92.98;101188.75;5057365;28;20033;-72
2023/07/22 06:31:47;;;;;;;25.25;12.20;;;;;;;15.66;91.73;101194.59;5061335;28;20055;-72
2023/07/22 06:34:12;;;;;;;25.95;11.95;;;;;;;15.67;91.63;101190.06;5065888;28;20352;-70
2023/07/22 06:36:37;;;;;;;26.35;12.65;;;;;;;15.70;92.45;101193.31;5053881;28;20045;-72
2023/07/22 06:39:03;;;;;;;26.30;13.32;;;;;;;15.75;92.96;101183.94;5062102;28;20047;-71
2023/07/22 06:41:29;;;;;;;26.20;13.77;;;;;;;15.80;93.35;101184.38;5060002;28;20021;-71
2023/07/22 06:43:54;;;;;;;26.38;13.05;;;;;;;15.82;92.23;101190.56;5057961;28;20083;-70
2023/07/22 06:46:21;;;;;;;30.42;13.57;;;;;;;15.84;92.69;101185.84;5057935;28;20032;-71
2023/07/22 06:48:47;;;;;;;28.60;14.60;;;;;;;15.88;92.64;101180.00;5057521;28;20145;-71
2023/07/22 06:51:12;;;;;;;29.52;12.65;;;;;;;15.90;92.62;101179.84;5049984;28;20021;-71
2023/07/22 06:53:38;;;;;;;32.15;14.07;;;;;;;15.97;93.57;101181.00;5053283;28;20025;-70
2023/07/22 06:56:03;;;;;;;26.58;12.82;;;;;;;16.03;92.44;101180.47;5047163;28;20029;-71
2023/07/22 06:58:29;;;;;;;28.75;13.13;;;;;;;16.06;92.75;101180.19;5050768;28;20040;-70
2023/07/22 07:00:55;;;;;;;25.65;12.02;;;;;;;16.10;91.67;101179.91;5051343;28;20021;-71
2023/07/22 07:03:21;;;;;;;25.55;12.43;;;;;;;16.13;92.57;101176.91;5049387;28;20018;-70
2023/07/22 07:05:54;;;;;;;28.42;12.38;;;;;;;16.15;91.89;101175.78;5048342;28;20779;-71
2023/07/22 07:08:19;;;;;;;26.52;12.45;;;;;;;16.21;92.01;101174.38;5055972;28;20504;-70
2023/07/22 07:10:44;;;;;;;25.83;12.55;;;;;;;16.28;92.22;101167.34;5055203;28;20092;-71
2023/07/22 07:13:10;;;;;;;27.83;14.30;;;;;;;16.32;91.92;101173.38;5053072;28;20033;-72
2023/07/22 07:15:35;;;;;;;30.05;13.65;;;;;;;16.36;92.15;101172.94;5051036;28;20029;-72
2023/07/22 07:18:00;;;;;;;29.10;12.60;;;;;;;16.40;91.85;101174.34;5063714;28;20050;-71
2023/07/22 07:20:26;;;;;;;26.45;11.75;;;;;;;16.42;91.36;101179.63;5053107;28;20013;-72
2023/07/22 07:22:51;;;;;;;27.13;11.93;;;;;;;16.44;91.63;101166.78;5048592;28;20040;-71
2023/07/22 07:25:16;;;;;;;26.65;12.35;;;;;;;16.51;91.93;101169.78;5050241;28;20026;-70
2023/07/22 07:27:42;;;;;;;27.95;12.25;;;;;;;16.51;91.43;101172.50;5058951;28;20089;-71
2023/07/22 07:30:08;;;;;;;29.48;12.93;;;;;;;16.54;92.39;101172.22;5070704;28;20017;-74
2023/07/22 07:32:34;;;;;;;25.42;11.90;;;;;;;16.57;92.23;101170.09;5058190;28;20036;-71
2023/07/22 07:34:59;;;;;;;32.17;12.48;;;;;;;16.63;93.46;101175.91;5061398;28;20025;-71
2023/07/22 07:37:25;;;;;;;28.17;11.75;;;;;;;16.66;91.74;101172.91;5058070;28;20539;-72
2023/07/22 07:39:50;;;;;;;27.00;11.43;;;;;;;16.70;92.40;101169.75;5058309;28;20125;-72
2023/07/22 07:42:15;;;;;;;27.20;12.73;;;;;;;16.74;91.64;101168.47;5058719;28;20114;-71
2023/07/22 07:44:41;;;;;;;33.55;11.93;;;;;;;16.76;91.40;101168.34;5058382;28;20025;-71
2023/07/22 07:47:09;;;;;;;27.05;12.60;;;;;;;16.83;92.86;101171.34;5056439;28;20020;-71
2023/07/22 07:49:35;;;;;;;28.08;12.40;;;;;;;16.87;91.48;101172.75;5049673;28;20034;-70
2023/07/22 07:52:00;;;;;;;27.23;11.63;;;;;;;16.91;90.45;101172.34;5048688;28;20040;-70
2023/07/22 07:54:25;;;;;;;24.13;11.52;;;;;;;16.98;91.44;101180.75;5040351;28;20040;-69
2023/07/22 07:56:51;;;;;;;26.55;10.73;;;;;;;17.07;93.91;101179.00;5043301;28;20186;-69
2023/07/22 07:59:16;;;;;;;23.52;11.02;;;;;;;17.12;91.76;101177.56;5041119;28;21236;-69
2023/07/22 08:01:41;;;;;;;21.90;10.20;;;;;;;17.16;90.47;101178.16;5036596;28;20053;-70
2023/07/22 08:04:08;;;;;;;25.15;11.00;;;;;;;17.21;91.47;101177.69;5032308;28;20031;-68
2023/07/22 08:06:34;;;;;;;25.15;10.30;;;;;;;17.28;91.12;101176.09;5044150;28;20029;-69
2023/07/22 08:08:59;;;;;;;28.80;12.15;;;;;;;17.32;91.08;101177.53;5032532;28;20033;-68
2023/07/22 08:11:24;;;;;;;25.05;11.30;;;;;;;17.37;91.31;101175.19;5042876;28;20409;-69
2023/07/22 08:13:51;;;;;;;28.25;11.45;;;;;;;17.40;88.69;101174.06;5040391;28;20025;-69
2023/07/22 08:16:17;;;;;;;23.25;10.07;;;;;;;17.42;88.61;101172.91;5028655;28;20021;-71
2023/07/22 08:18:43;;;;;;;25.88;11.38;;;;;;;17.43;88.95;101173.75;5034836;28;20498;-69
2023/07/22 08:21:09;;;;;;;23.38;10.15;;;;;;;17.46;89.61;101171.56;5056468;28;20044;-69
2023/07/22 08:23:36;;;;;;;23.85;11.18;;;;;;;17.46;88.23;101168.88;5022945;28;20026;-69
2023/07/22 08:26:05;;;;;;;29.38;11.10;;;;;;;17.45;86.90;101182.59;5023870;28;20026;-69
2023/07/22 08:28:30;;;;;;;25.33;10.57;;;;;;;17.44;87.21;101181.75;5032647;28;20469;-70
2023/07/22 08:30:56;;;;;;;23.70;9.90;;;;;;;17.47;86.74;101180.59;5031517;28;20140;-69
2023/07/22 08:33:22;;;;;;;27.20;10.82;;;;;;;17.53;88.39;101188.16;5037771;28;20080;-69
2023/07/22 08:35:48;;;;;;;21.48;8.40;;;;;;;17.55;84.57;101180.69;5038076;28;20025;-68
2023/07/22 08:38:17;;;;;;;23.38;10.38;;;;;;;17.62;84.62;101183.69;5036799;28;20109;-67
2023/07/22 08:40:42;;;;;;;21.10;9.38;;;;;;;17.69;85.22;101181.19;5036096;28;20036;-69
2023/07/22 08:43:10;;;;;;;23.80;9.77;;;;;;;17.77;85.58;101179.44;5044538;28;20476;-70
2023/07/22 08:45:37;;;;;;;24.15;9.05;;;;;;;17.83;83.58;101183.41;5039432;28;20029;-68
2023/07/22 08:48:09;;;;;;;22.38;9.98;;;;;;;17.85;80.40;101175.09;5032558;28;20079;-69
2023/07/22 08:50:41;;;;;;;23.05;8.07;;;;;;;17.89;80.13;101181.97;5043121;28;20387;-69
2023/07/22 08:53:07;;;;;;;21.85;8.25;;;;;;;17.93;81.20;101181.53;5036896;28;20029;-69
2023/07/22 08:55:34;;;;;;;22.13;8.77;;;;;;;18.01;82.44;101185.34;5030534;28;20034;-69
2023/07/22 08:58:00;;;;;;;23.10;9.20;;;;;;;18.08;80.84;101190.03;5032731;28;20373;-69
2023/07/22 09:00:26;;;;;;;29.13;8.75;;;;;;;18.17;81.71;101185.53;5042742;28;20056;-69
2023/07/22 09:02:53;;;;;;;22.67;8.65;;;;;;;18.20;79.91;101181.63;5041877;28;20120;-69
2023/07/22 09:05:18;;;;;;;20.35;8.05;;;;;;;18.24;77.41;101193.94;5042985;28;20055;-69
2023/07/22 09:07:43;;;;;;;28.17;8.10;;;;;;;18.28;79.32;101184.44;5039020;28;20026;-69
2023/07/22 09:10:09;;;;;;;23.73;7.90;;;;;;;18.30;78.85;101185.13;5044002;28;20030;-71
2023/07/22 09:12:40;;;;;;;20.83;8.25;;;;;;;18.36;79.93;101183.66;5040042;28;20541;-68
2023/07/22 09:15:15;;;;;;;26.40;8.43;;;;;;;18.39;79.01;101175.19;5046697;28;20099;-69
2023/07/22 09:17:40;;;;;;;20.30;6.90;;;;;;;18.45;77.64;101180.03;5032095;28;20064;-69
2023/07/22 09:20:07;;;;;;;22.88;7.80;;;;;;;18.51;77.53;101177.53;5040869;28;20527;-70
2023/07/22 09:22:33;;;;;;;22.50;7.75;;;;;;;18.60;77.94;101178.44;5039442;28;20033;-68
2023/07/22 09:25:23;;;;;;;22.15;7.35;;;;;;;18.67;78.52;101184.97;5030123;28;20043;-69
2023/07/22 09:27:55;;;;;;;20.45;7.00;;;;;;;18.70;74.56;101167.47;5035136;28;20053;-69
2023/07/22 09:30:30;;;;;;;20.45;6.45;;;;;;;18.75;76.88;101170.56;5040556;28;20048;-69
2023/07/22 09:33:00;;;;;;;19.48;6.30;;;;;;;18.80;75.96;101184.56;5025867;28;20098;-69
2023/07/22 09:35:46;;;;;;;19.95;7.25;;;;;;;18.81;75.04;101172.66;5052684;28;20025;-69
2023/07/22 09:38:12;;;;;;;18.38;6.97;;;;;;;18.83;75.50;101178.81;5035205;28;20554;-70
2023/07/22 09:40:40;;;;;;;20.08;6.95;;;;;;;18.87;75.30;101163.03;5030982;28;20112;-69
2023/07/22 09:43:06;;;;;;;18.50;6.45;;;;;;;18.91;76.11;101169.03;5031902;28;20033;-70
2023/07/22 09:45:31;;;;;;;18.15;6.32;;;;;;;18.94;75.65;101163.25;5042625;28;20465;-69
2023/07/22 09:47:58;;;;;;;18.70;7.07;;;;;;;18.95;75.71;101167.69;5035344;28;20079;-69
2023/07/22 09:50:25;;;;;;;19.23;6.60;;;;;;;18.94;76.60;101179.59;5039104;28;20060;-69
2023/07/22 09:52:59;;;;;;;15.73;5.80;;;;;;;18.89;77.84;101163.75;5041999;28;20033;-69
2023/07/22 09:55:29;;;;;;;21.02;7.07;;;;;;;18.90;76.51;101164.59;5031179;28;20060;-69
2023/07/22 09:57:56;;;;;;;26.85;6.22;;;;;;;18.95;75.46;101164.97;5039217;28;20357;-68
2023/07/22 10:00:25;;;;;;;18.55;5.75;;;;;;;18.96;75.52;101164.81;5028769;28;20028;-69
2023/07/22 10:02:52;;;;;;;20.35;6.38;;;;;;;18.98;74.97;101156.47;5037877;28;20063;-69
2023/07/22 10:05:19;;;;;;;18.83;5.97;;;;;;;19.01;74.21;101167.06;5036857;28;20025;-68
2023/07/22 10:07:52;;;;;;;18.67;6.15;;;;;;;19.02;74.71;101166.88;5037835;28;20100;-69
2023/07/22 10:10:20;;;;;;;19.40;6.65;;;;;;;19.03;75.17;101170.44;5042376;28;20037;-69
2023/07/22 10:12:46;;;;;;;21.27;7.05;;;;;;;19.03;75.45;101171.31;5045979;28;20049;-69
2023/07/22 10:15:14;;;;;;;17.17;6.35;;;;;;;19.06;75.26;101163.84;5035919;28;20037;-69
2023/07/22 10:17:41;;;;;;;18.80;6.47;;;;;;;19.08;74.21;101161.78;5028861;28;20021;-70
2023/07/22 10:20:09;;;;;;;16.70;5.65;;;;;;;19.11;73.19;101165.06;5041833;28;20059;-69
2023/07/22 10:22:36;;;;;;;17.10;4.80;;;;;;;19.14;72.84;101161.19;5035721;28;20090;-69
2023/07/22 10:25:08;;;;;;;16.75;4.97;;;;;;;19.18;71.63;101171.59;5045092;28;20037;-71
2023/07/22 10:27:35;;;;;;;16.25;4.60;;;;;;;19.26;73.64;101168.03;5037346;28;20029;-71
2023/07/22 10:30:04;;;;;;;13.10;4.30;;;;;;;19.31;70.63;101164.84;5038306;28;20040;-69
2023/07/22 10:32:40;;;;;;;13.57;4.03;;;;;;;19.35;68.47;101163.50;5037142;28;20100;-70
2023/07/22 10:35:17;;;;;;;16.83;4.68;;;;;;;19.36;68.26;101167.94;5028029;28;20033;-68
2023/07/22 10:37:46;;;;;;;11.52;4.05;;;;;;;19.38;68.40;101163.16;5037211;28;20473;-71
2023/07/22 10:40:24;;;;;;;8.90;3.60;;;;;;;19.44;69.31;101169.84;5039864;28;20041;-70
2023/07/22 10:42:58;;;;;;;11.85;3.67;;;;;;;19.51;69.67;101169.00;5039006;28;20072;-69
2023/07/22 10:45:48;;;;;;;8.05;3.05;;;;;;;19.56;67.49;101163.06;5028464;28;20484;-70
2023/07/22 10:48:13;;;;;;;;;;;;;;;19.65;69.51;101155.78;5046233;28;20032;-70
2023/07/22 10:50:40;;;;;;;10.70;3.47;;;;;;;19.67;67.76;101154.59;5039508;28;20704;-70
2023/07/22 10:53:09;;;;;;;12.60;3.75;;;;;;;19.73;67.79;101148.47;5026655;28;20291;-70
2023/07/22 10:56:05;;;;;;;12.70;3.42;;;;;;;19.81;67.66;101158.63;5028694;28;20025;-71
2023/07/22 10:58:54;;;;;;;12.43;3.75;;;;;;;19.80;64.54;101161.50;5031341;28;20504;-70
2023/07/22 11:01:28;;;;;;;7.40;3.17;;;;;;;19.81;66.19;101155.88;5035360;28;20120;-69
2023/07/22 11:04:18;;;;;;;14.05;3.92;;;;;;;19.82;66.02;101162.19;5041985;28;20040;-70
2023/07/22 11:06:43;;;;;;;14.68;3.78;;;;;;;19.83;66.52;101158.44;5014547;28;20033;-70
2023/07/22 11:09:34;;;;;;;11.15;3.38;;;;;;;19.86;68.42;101152.66;5040651;28;20080;-70
2023/07/22 11:12:02;;;;;;;10.63;3.15;;;;;;;19.86;64.64;101150.78;5042940;28;20045;-70
2023/07/22 11:14:37;;;;;;;9.45;3.28;;;;;;;19.87;64.48;101155.22;5035410;28;20032;-69
2023/07/22 11:17:04;;;;;;;13.93;3.40;;;;;;;19.95;62.96;101145.34;5029040;28;20484;-69